Certoux — ZCEH2 — position and weather

sailwx.info

Track history (hours):
 
Tides and Currents Weather Stations Pressure Air Temp Water Temp Dewpoint Dewpoint Depression Visibility Wind Speed Wind Dir Waves Ship Positions

Certoux

Last reported at 2017-Sep-28 01:16 UTC. Time now 2017-Nov-23 09:32 UTC.
Position N 37°07' E 001°12'.
Warning: this ship's position is 56 days out of date.

Length 289 m; draft 14.4 m.

Type: Cargo ship. MMSI: 310639000.

Date/timePositionNaut miles runAvg speedWind from/ knotsBaromVisibWave heightAir tempDewpointWater temp
2017-Sep-28 01:16N 37°07' E 001°12'311.1
2017-Sep-28 01:00N 37°06' E 001°08'611.1
2017-Sep-28 00:30N 37°05' E 001°01'511.1
2017-Sep-28 00:00N 37°03' E 000°55'611.3
2017-Sep-27 23:30N 37°01' E 000°48'611.2
2017-Sep-27 22:58N 36°60' E 000°41'511.1
2017-Sep-27 22:30N 36°59' E 000°34'1011.1
2017-Sep-27 21:34N 36°56' E 000°22'111.2
2017-Sep-27 21:27N 36°55' E 000°20'511.2
2017-Sep-27 20:57N 36°54' E 000°14'511.0
2017-Sep-27 20:28N 36°53' E 000°07'611.0
2017-Sep-27 19:56N 36°51' E 000°00'511.1
2017-Sep-27 19:30N 36°50' W 000°06'24811.9
2017-Sep-26 22:36N 36°03' W 005°08'1 6.9
2017-Sep-26 22:30N 36°03' W 005°09'3 6.6
2017-Sep-26 22:00N 36°03' W 005°13'3 6.3
2017-Sep-26 21:30N 36°03' W 005°17'3 5.4
2017-Sep-26 21:00N 36°03' W 005°20'3 4.9
2017-Sep-26 20:29N 36°05' W 005°23'3 5.6
2017-Sep-26 19:57N 36°07' W 005°24'1 0.4
2017-Sep-26 18:40N 36°08' W 005°23'0 0.2
2017-Sep-26 18:28N 36°08' W 005°23'0 0.2
2017-Sep-26 17:55N 36°08' W 005°23'0 0.4
2017-Sep-26 17:28N 36°08' W 005°23'0 0.0
2017-Sep-26 16:58N 36°08' W 005°23'0 0.1
2017-Sep-26 16:28N 36°08' W 005°23'0 0.0
2017-Sep-26 15:58N 36°08' W 005°23'0 0.1
2017-Sep-26 15:28N 36°08' W 005°23'0 0.2
2017-Sep-26 14:58N 36°08' W 005°23'0 0.2
2017-Sep-26 14:28N 36°08' W 005°23'0 0.1
2017-Sep-26 13:58N 36°08' W 005°23'0 0.0
2017-Sep-26 11:40N 36°08' W 005°23'0 0.3
2017-Sep-26 11:10N 36°08' W 005°23'0 0.4
2017-Sep-26 10:58N 36°08' W 005°23'0 0.0
2017-Sep-26 06:34N 36°08' W 005°23'0 0.1
2017-Sep-26 05:46N 36°08' W 005°23'0 0.1
2017-Sep-26 05:25N 36°08' W 005°23'0 0.1
2017-Sep-26 04:55N 36°08' W 005°23'0 0.0
2017-Sep-26 04:25N 36°08' W 005°23'0 0.1
2017-Sep-26 03:58N 36°08' W 005°23'0 0.1
2017-Sep-26 03:28N 36°08' W 005°23'0 0.3
2017-Sep-26 03:00N 36°08' W 005°23'1 2.0
2017-Sep-26 02:30N 36°07' W 005°22'3 6.2
2017-Sep-26 02:00N 36°04' W 005°20'4 7.4
2017-Sep-26 01:30N 36°03' W 005°16'0 0.9
2017-Sep-26 01:00N 36°04' W 005°16'2 3.6
2017-Sep-26 00:30N 36°05' W 005°14'4 8.9
2017-Sep-26 00:00N 36°06' W 005°09'5 1.6
2017-Sep-25 20:42N 36°10' W 005°04'1 0.6
2017-Sep-25 19:43N 36°11' W 005°04'0 0.8
2017-Sep-25 19:30N 36°11' W 005°04'2 0.8
2017-Sep-25 17:09N 36°11' W 005°07'0 1.6
2017-Sep-25 16:53N 36°11' W 005°07'0 0.6
2017-Sep-25 16:29N 36°10' W 005°08'1 1.2
2017-Sep-25 15:57N 36°10' W 005°08'1 1.6
2017-Sep-25 15:30N 36°09' W 005°09'0 0.4
2017-Sep-25 15:00N 36°09' W 005°09'1 2.2
2017-Sep-25 14:30N 36°08' W 005°10'1 2.5
2017-Sep-25 14:00N 36°08' W 005°11'1 2.3
2017-Sep-25 13:30N 36°07' W 005°11'0 0.8
2017-Sep-25 12:59N 36°06' W 005°11'1 1.0
2017-Sep-25 12:23N 36°07' W 005°10'1 0.8
2017-Sep-25 11:18N 36°07' W 005°09'1 0.9
2017-Sep-25 09:59N 36°07' W 005°11'3 7.1
2017-Sep-25 09:30N 36°04' W 005°14'510.9
2017-Sep-25 09:00N 36°01' W 005°19'612.7
2017-Sep-25 08:30N 35°58' W 005°26'10911.5
2017-Sep-24 23:06N 35°56' W 007°40'211.6
2017-Sep-24 22:56N 35°56' W 007°43'5411.8
2017-Sep-24 18:23N 36°04' W 008°48'511.6
2017-Sep-24 17:59N 36°05' W 008°54'611.5
2017-Sep-24 17:30N 36°06' W 009°00'611.4
2017-Sep-24 17:00N 36°07' W 009°08'511.2
2017-Sep-24 16:30N 36°08' W 009°14'611.4
2017-Sep-24 16:00N 36°09' W 009°21'611.5
2017-Sep-24 15:30N 36°10' W 009°28'611.6
2017-Sep-24 15:00N 36°10' W 009°35'611.5
2017-Sep-24 14:30N 36°11' W 009°42'611.5
2017-Sep-24 14:00N 36°12' W 009°49'611.3
2017-Sep-24 13:30N 36°14' W 009°56'611.5
2017-Sep-24 13:00N 36°15' W 010°03'611.6
2017-Sep-24 12:30N 36°17' W 010°10'611.7
2017-Sep-24 12:00N 36°20' W 010°16'510.4
2017-Sep-24 11:30N 36°23' W 010°22'2 4.1
2017-Sep-24 11:00N 36°21' W 010°20'510.3
2017-Sep-24 10:30N 36°22' W 010°26'611.7
2017-Sep-24 10:00N 36°24' W 010°33'611.6
2017-Sep-24 09:30N 36°26' W 010°40'611.6
2017-Sep-24 09:00N 36°27' W 010°47'611.6
2017-Sep-24 08:30N 36°29' W 010°53'611.9
2017-Sep-24 08:00N 36°31' W 011°00'611.9
2017-Sep-24 07:30N 36°33' W 011°07'611.6
2017-Sep-24 07:00N 36°35' W 011°14'611.4
2017-Sep-24 06:30N 36°37' W 011°21'611.7
2017-Sep-24 06:00N 36°39' W 011°28'612.1
2017-Sep-24 05:30N 36°41' W 011°35'611.3
2017-Sep-24 05:00N 36°43' W 011°42'611.2
2017-Sep-24 04:30N 36°45' W 011°48'611.5
2017-Sep-24 04:00N 36°46' W 011°55'611.9
2017-Sep-24 03:30N 36°48' W 012°02'611.9
2017-Sep-24 03:00N 36°50' W 012°09'611.8
2017-Sep-24 02:30N 36°52' W 012°16'611.9
2017-Sep-24 02:00N 36°54' W 012°23'611.9
2017-Sep-24 01:30N 36°56' W 012°30'611.6
2017-Sep-24 01:00N 36°58' W 012°37'611.8
2017-Sep-24 00:30N 36°60' W 012°44'612.3
2017-Sep-24 00:00N 37°02' W 012°51'612.1
2017-Sep-23 23:30N 37°03' W 012°59'611.7
2017-Sep-23 23:00N 37°05' W 013°06'611.5
2017-Sep-23 22:30N 37°07' W 013°13'611.5
2017-Sep-23 22:00N 37°09' W 013°19'611.7
2017-Sep-23 21:30N 37°10' W 013°27'611.5
2017-Sep-23 21:00N 37°12' W 013°33'611.7
2017-Sep-23 20:28N 37°14' W 013°41'611.8
2017-Sep-23 20:00N 37°16' W 013°48'  
2017-Sep-21 13:44N 39°41' W 026°37'6 9.8
2017-Sep-21 13:08N 39°42' W 026°44'7510.8
2017-Sep-21 06:10N 39°54' W 028°21'511.4
2017-Sep-21 05:43N 39°55' W 028°27'211.1
2017-Sep-21 05:30N 39°55' W 028°30'611.5
2017-Sep-21 05:00N 39°56' W 028°38'811.6
2017-Sep-21 04:17N 39°57' W 028°49'311.9
2017-Sep-21 04:00N 39°58' W 028°53'611.8
2017-Sep-21 03:29N 39°59' W 029°01'611.6
2017-Sep-21 03:00N 39°60' W 029°08'612.1
2017-Sep-21 02:30N 40°00' W 029°16'612.4
2017-Sep-21 02:00N 40°01' W 029°24'  
Track history (hours):
 
Tides and Currents Weather Stations Pressure Air Temp Water Temp Dewpoint Dewpoint Depression Visibility Wind Speed Wind Dir Waves Ship Positions

Certoux

Last reported at 2017-Sep-28 01:16 UTC. Time now 2017-Nov-23 09:32 UTC.
Position N 37°07' E 001°12'.
Warning: this ship's position is 56 days out of date.

Length 289 m; draft 14.4 m.

Type: Cargo ship. MMSI: 310639000.

Date/timePositionNaut miles runAvg speedWind from/ knotsBaromVisibWave heightAir tempDewpointWater temp
2017-Sep-28 01:16N 37°07' E 001°12'311.1
2017-Sep-28 01:00N 37°06' E 001°08'611.1
2017-Sep-28 00:30N 37°05' E 001°01'511.1
2017-Sep-28 00:00N 37°03' E 000°55'611.3
2017-Sep-27 23:30N 37°01' E 000°48'611.2
2017-Sep-27 22:58N 36°60' E 000°41'511.1
2017-Sep-27 22:30N 36°59' E 000°34'1011.1
2017-Sep-27 21:34N 36°56' E 000°22'111.2
2017-Sep-27 21:27N 36°55' E 000°20'511.2
2017-Sep-27 20:57N 36°54' E 000°14'511.0
2017-Sep-27 20:28N 36°53' E 000°07'611.0
2017-Sep-27 19:56N 36°51' E 000°00'511.1
2017-Sep-27 19:30N 36°50' W 000°06'24811.9
2017-Sep-26 22:36N 36°03' W 005°08'1 6.9
2017-Sep-26 22:30N 36°03' W 005°09'3 6.6
2017-Sep-26 22:00N 36°03' W 005°13'3 6.3
2017-Sep-26 21:30N 36°03' W 005°17'3 5.4
2017-Sep-26 21:00N 36°03' W 005°20'3 4.9
2017-Sep-26 20:29N 36°05' W 005°23'3 5.6
2017-Sep-26 19:57N 36°07' W 005°24'1 0.4
2017-Sep-26 18:40N 36°08' W 005°23'0 0.2
2017-Sep-26 18:28N 36°08' W 005°23'0 0.2
2017-Sep-26 17:55N 36°08' W 005°23'0 0.4
2017-Sep-26 17:28N 36°08' W 005°23'0 0.0
2017-Sep-26 16:58N 36°08' W 005°23'0 0.1
2017-Sep-26 16:28N 36°08' W 005°23'0 0.0
2017-Sep-26 15:58N 36°08' W 005°23'0 0.1
2017-Sep-26 15:28N 36°08' W 005°23'0 0.2
2017-Sep-26 14:58N 36°08' W 005°23'0 0.2
2017-Sep-26 14:28N 36°08' W 005°23'0 0.1
2017-Sep-26 13:58N 36°08' W 005°23'0 0.0
2017-Sep-26 11:40N 36°08' W 005°23'0 0.3
2017-Sep-26 11:10N 36°08' W 005°23'0 0.4
2017-Sep-26 10:58N 36°08' W 005°23'0 0.0
2017-Sep-26 06:34N 36°08' W 005°23'0 0.1
2017-Sep-26 05:46N 36°08' W 005°23'0 0.1
2017-Sep-26 05:25N 36°08' W 005°23'0 0.1
2017-Sep-26 04:55N 36°08' W 005°23'0 0.0
2017-Sep-26 04:25N 36°08' W 005°23'0 0.1
2017-Sep-26 03:58N 36°08' W 005°23'0 0.1
2017-Sep-26 03:28N 36°08' W 005°23'0 0.3
2017-Sep-26 03:00N 36°08' W 005°23'1 2.0
2017-Sep-26 02:30N 36°07' W 005°22'3 6.2
2017-Sep-26 02:00N 36°04' W 005°20'4 7.4
2017-Sep-26 01:30N 36°03' W 005°16'0 0.9
2017-Sep-26 01:00N 36°04' W 005°16'2 3.6
2017-Sep-26 00:30N 36°05' W 005°14'4 8.9
2017-Sep-26 00:00N 36°06' W 005°09'5 1.6
2017-Sep-25 20:42N 36°10' W 005°04'1 0.6
2017-Sep-25 19:43N 36°11' W 005°04'0 0.8
2017-Sep-25 19:30N 36°11' W 005°04'2 0.8
2017-Sep-25 17:09N 36°11' W 005°07'0 1.6
2017-Sep-25 16:53N 36°11' W 005°07'0 0.6
2017-Sep-25 16:29N 36°10' W 005°08'1 1.2
2017-Sep-25 15:57N 36°10' W 005°08'1 1.6
2017-Sep-25 15:30N 36°09' W 005°09'0 0.4
2017-Sep-25 15:00N 36°09' W 005°09'1 2.2
2017-Sep-25 14:30N 36°08' W 005°10'1 2.5
2017-Sep-25 14:00N 36°08' W 005°11'1 2.3
2017-Sep-25 13:30N 36°07' W 005°11'0 0.8
2017-Sep-25 12:59N 36°06' W 005°11'1 1.0
2017-Sep-25 12:23N 36°07' W 005°10'1 0.8
2017-Sep-25 11:18N 36°07' W 005°09'1 0.9
2017-Sep-25 09:59N 36°07' W 005°11'3 7.1
2017-Sep-25 09:30N 36°04' W 005°14'510.9
2017-Sep-25 09:00N 36°01' W 005°19'612.7
2017-Sep-25 08:30N 35°58' W 005°26'10911.5
2017-Sep-24 23:06N 35°56' W 007°40'211.6
2017-Sep-24 22:56N 35°56' W 007°43'5411.8
2017-Sep-24 18:23N 36°04' W 008°48'511.6
2017-Sep-24 17:59N 36°05' W 008°54'611.5
2017-Sep-24 17:30N 36°06' W 009°00'611.4
2017-Sep-24 17:00N 36°07' W 009°08'511.2
2017-Sep-24 16:30N 36°08' W 009°14'611.4
2017-Sep-24 16:00N 36°09' W 009°21'611.5
2017-Sep-24 15:30N 36°10' W 009°28'611.6
2017-Sep-24 15:00N 36°10' W 009°35'611.5
2017-Sep-24 14:30N 36°11' W 009°42'611.5
2017-Sep-24 14:00N 36°12' W 009°49'611.3
2017-Sep-24 13:30N 36°14' W 009°56'611.5
2017-Sep-24 13:00N 36°15' W 010°03'611.6
2017-Sep-24 12:30N 36°17' W 010°10'611.7
2017-Sep-24 12:00N 36°20' W 010°16'510.4
2017-Sep-24 11:30N 36°23' W 010°22'2 4.1
2017-Sep-24 11:00N 36°21' W 010°20'510.3
2017-Sep-24 10:30N 36°22' W 010°26'611.7
2017-Sep-24 10:00N 36°24' W 010°33'611.6
2017-Sep-24 09:30N 36°26' W 010°40'611.6
2017-Sep-24 09:00N 36°27' W 010°47'611.6
2017-Sep-24 08:30N 36°29' W 010°53'611.9
2017-Sep-24 08:00N 36°31' W 011°00'611.9
2017-Sep-24 07:30N 36°33' W 011°07'611.6
2017-Sep-24 07:00N 36°35' W 011°14'611.4
2017-Sep-24 06:30N 36°37' W 011°21'611.7
2017-Sep-24 06:00N 36°39' W 011°28'612.1
2017-Sep-24 05:30N 36°41' W 011°35'611.3
2017-Sep-24 05:00N 36°43' W 011°42'611.2
2017-Sep-24 04:30N 36°45' W 011°48'611.5
2017-Sep-24 04:00N 36°46' W 011°55'611.9
2017-Sep-24 03:30N 36°48' W 012°02'611.9
2017-Sep-24 03:00N 36°50' W 012°09'611.8
2017-Sep-24 02:30N 36°52' W 012°16'611.9
2017-Sep-24 02:00N 36°54' W 012°23'611.9
2017-Sep-24 01:30N 36°56' W 012°30'611.6
2017-Sep-24 01:00N 36°58' W 012°37'611.8
2017-Sep-24 00:30N 36°60' W 012°44'612.3
2017-Sep-24 00:00N 37°02' W 012°51'612.1
2017-Sep-23 23:30N 37°03' W 012°59'611.7
2017-Sep-23 23:00N 37°05' W 013°06'611.5
2017-Sep-23 22:30N 37°07' W 013°13'611.5
2017-Sep-23 22:00N 37°09' W 013°19'611.7
2017-Sep-23 21:30N 37°10' W 013°27'611.5
2017-Sep-23 21:00N 37°12' W 013°33'611.7
2017-Sep-23 20:28N 37°14' W 013°41'611.8
2017-Sep-23 20:00N 37°16' W 013°48'  
2017-Sep-21 13:44N 39°41' W 026°37'6 9.8
2017-Sep-21 13:08N 39°42' W 026°44'7510.8
2017-Sep-21 06:10N 39°54' W 028°21'511.4
2017-Sep-21 05:43N 39°55' W 028°27'211.1
2017-Sep-21 05:30N 39°55' W 028°30'611.5
2017-Sep-21 05:00N 39°56' W 028°38'811.6
2017-Sep-21 04:17N 39°57' W 028°49'311.9
2017-Sep-21 04:00N 39°58' W 028°53'611.8
2017-Sep-21 03:29N 39°59' W 029°01'611.6
2017-Sep-21 03:00N 39°60' W 029°08'612.1
2017-Sep-21 02:30N 40°00' W 029°16'612.4
2017-Sep-21 02:00N 40°01' W 029°24'  

Dump ship's entire track history